Time;durP1;ratioP1;P1;durP2;ratioP2;P2;SDS_P1;SDS_P2;PMS_P1;PMS_P2;Temp;Humidity;BMP_temperature;BMP_pressure;BME280_temperature;BME280_humidity;BME280_pressure;Samples;Min_cycle;Max_cycle;Signal;HPM_P1;HPM_P2
2023/03/18 00:00:46;;;;;;;6.87;5.30;;;9.00;56.60;;;;;;5181451;28;20431;-50
2023/03/18 00:03:17;;;;;;;16.57;6.30;;;9.10;56.80;;;;;;5188781;28;20199;-52
2023/03/18 00:05:47;;;;;;;8.13;6.10;;;9.10;56.70;;;;;;5177763;28;20190;-50
2023/03/18 00:08:18;;;;;;;11.53;5.23;;;9.00;56.60;;;;;;5176260;28;20456;-50
2023/03/18 00:10:50;;;;;;;11.20;5.80;;;9.00;56.60;;;;;;5180008;28;20229;-52
2023/03/18 00:13:20;;;;;;;10.97;5.37;;;9.00;56.60;;;;;;5173008;28;20181;-51
2023/03/18 00:15:51;;;;;;;8.40;6.13;;;9.00;56.80;;;;;;5199208;28;20467;-50
2023/03/18 00:18:23;;;;;;;7.53;5.07;;;9.00;56.70;;;;;;5179448;28;20212;-48
2023/03/18 00:20:54;;;;;;;9.60;5.13;;;9.00;56.70;;;;;;5175936;28;20449;-51
2023/03/18 00:23:26;;;;;;;6.17;5.00;;;9.00;56.60;;;;;;5181107;28;20791;-51
2023/03/18 00:25:59;;;;;;;8.27;5.10;;;9.00;57.00;;;;;;5173574;28;20238;-50
2023/03/18 00:28:30;;;;;;;8.37;5.30;;;9.00;57.10;;;;;;5173311;28;20435;-52
2023/03/18 00:31:09;;;;;;;10.80;5.43;;;8.90;57.10;;;;;;5185592;28;20801;-50
2023/03/18 00:33:44;;;;;;;5.00;4.50;;;8.90;57.30;;;;;;5173532;28;20196;-50
2023/03/18 00:36:17;;;;;;;10.23;5.27;;;8.80;57.10;;;;;;5182894;28;20442;-49
2023/03/18 00:38:49;;;;;;;5.73;4.57;;;8.80;57.60;;;;;;5174513;28;20836;-51
2023/03/18 00:41:20;;;;;;;7.00;5.00;;;8.70;57.50;;;;;;5183152;28;20439;-50
2023/03/18 00:43:52;;;;;;;13.67;5.27;;;8.70;57.60;;;;;;5177874;28;20463;-51
2023/03/18 00:46:26;;;;;;;10.07;5.30;;;8.80;57.60;;;;;;5188559;28;20200;-48
2023/03/18 00:48:59;;;;;;;7.23;5.67;;;8.70;57.70;;;;;;5187870;28;20807;-48
2023/03/18 00:51:33;;;;;;;8.03;5.27;;;8.70;57.70;;;;;;5181198;28;20509;-49
2023/03/18 00:54:06;;;;;;;10.87;5.57;;;8.70;57.90;;;;;;5184471;28;20482;-50
2023/03/18 00:56:38;;;;;;;7.53;5.10;;;8.60;58.00;;;;;;5187532;28;20469;-49
2023/03/18 00:59:09;;;;;;;6.67;4.40;;;8.50;58.50;;;;;;5178863;28;20444;-49
2023/03/18 01:01:40;;;;;;;11.37;4.73;;;8.50;58.20;;;;;;5164145;28;20443;-50
2023/03/18 01:04:10;;;;;;;11.10;4.70;;;8.50;58.50;;;;;;5174154;28;20250;-49
2023/03/18 01:06:41;;;;;;;7.60;5.47;;;8.40;58.80;;;;;;5180240;28;20201;-50
2023/03/18 01:09:11;;;;;;;15.90;4.50;;;8.40;59.20;;;;;;5174619;28;20188;-51
2023/03/18 01:11:42;;;;;;;5.40;4.33;;;8.40;58.90;;;;;;5173100;28;20275;-49
2023/03/18 01:14:13;;;;;;;9.00;4.53;;;8.40;59.10;;;;;;5175093;28;20207;-50
2023/03/18 01:16:45;;;;;;;9.40;5.87;;;8.30;59.40;;;;;;5180690;28;20207;-50
2023/03/18 01:19:16;;;;;;;6.63;4.00;;;8.30;59.40;;;;;;5183667;28;20195;-50
2023/03/18 01:21:47;;;;;;;7.03;4.73;;;8.30;59.40;;;;;;5176534;28;20428;-49
2023/03/18 01:24:17;;;;;;;8.90;4.90;;;8.30;59.50;;;;;;5179008;28;20200;-48
2023/03/18 01:26:48;;;;;;;7.27;4.33;;;8.30;59.20;;;;;;5182349;28;20207;-49
2023/03/18 01:29:21;;;;;;;8.50;4.97;;;8.30;59.70;;;;;;5175115;28;20994;-50
2023/03/18 01:31:53;;;;;;;7.93;5.07;;;8.30;59.60;;;;;;5172584;28;20530;-50
2023/03/18 01:34:24;;;;;;;8.40;4.90;;;8.30;59.30;;;;;;5181176;28;20459;-48
2023/03/18 01:36:56;;;;;;;6.50;3.77;;;8.30;59.30;;;;;;5174657;28;20462;-48
2023/03/18 01:39:26;;;;;;;7.30;4.53;;;8.30;59.30;;;;;;5184309;28;20184;-49
2023/03/18 01:41:58;;;;;;;5.97;3.80;;;8.30;59.20;;;;;;5175513;28;20462;-48
2023/03/18 01:44:29;;;;;;;5.57;4.50;;;8.30;59.30;;;;;;5177293;28;20192;-51
2023/03/18 01:47:00;;;;;;;5.27;4.57;;;8.30;59.20;;;;;;5177750;28;20476;-49
2023/03/18 01:49:36;;;;;;;9.67;3.97;;;8.30;59.20;;;;;;5182741;28;20930;-49
2023/03/18 01:52:11;;;;;;;6.90;4.60;;;8.30;59.30;;;;;;5180576;28;21782;-49
2023/03/18 01:54:54;;;;;;;9.67;5.57;;;8.30;59.20;;;;;;5180230;28;20537;-50
2023/03/18 01:57:26;;;;;;;5.03;4.20;;;8.40;59.30;;;;;;5190554;28;20446;-49
2023/03/18 01:59:57;;;;;;;8.77;5.03;;;8.30;59.20;;;;;;5185417;28;20435;-49
2023/03/18 02:02:28;;;;;;;5.93;4.27;;;8.20;59.40;;;;;;5169130;28;20518;-48
2023/03/18 02:05:05;;;;;;;4.87;4.37;;;8.30;59.20;;;;;;5171733;28;20454;-51
2023/03/18 02:07:36;;;;;;;6.20;4.80;;;8.30;59.20;;;;;;5175748;28;20495;-49
2023/03/18 02:10:12;;;;;;;9.00;4.00;;;8.30;59.20;;;;;;5174410;28;20427;-49
2023/03/18 02:12:47;;;;;;;5.33;4.10;;;8.30;59.30;;;;;;5174821;28;20481;-48
2023/03/18 02:15:22;;;;;;;11.07;5.20;;;8.60;58.90;;;;;;5178393;28;20499;-50
2023/03/18 02:18:22;;;;;;;15.00;4.83;;;8.40;58.50;;;;;;5176741;28;20454;-51
2023/03/18 02:21:30;;;;;;;9.30;4.50;;;8.40;58.40;;;;;;5162827;28;20476;-50
2023/03/18 02:24:22;;;;;;;16.10;4.30;;;8.30;58.70;;;;;;5167531;28;20435;-51
2023/03/18 02:27:17;;;;;;;4.03;3.70;;;8.30;58.70;;;;;;5172431;28;20816;-48
2023/03/18 02:29:52;;;;;;;7.60;4.10;;;8.30;59.00;;;;;;5184457;28;20435;-49
2023/03/18 02:32:27;;;;;;;6.93;4.00;;;8.30;59.10;;;;;;5176179;28;20466;-49
2023/03/18 02:35:02;;;;;;;7.03;3.90;;;8.40;58.70;;;;;;5167595;28;20471;-48
2023/03/18 02:37:32;;;;;;;5.53;4.10;;;8.40;58.80;;;;;;5179637;28;20458;-51
2023/03/18 02:40:26;;;;;;;7.17;4.33;;;8.30;58.90;;;;;;5172213;28;20911;-49
2023/03/18 02:43:37;;;;;;;3.57;3.20;;;8.30;59.00;;;;;;5175806;28;20185;-50
2023/03/18 02:46:33;;;;;;;19.37;4.20;;;8.30;59.00;;;;;;5172481;28;21746;-51
2023/03/18 02:49:06;;;;;;;4.03;3.73;;;8.20;59.10;;;;;;5188717;28;20431;-51
2023/03/18 02:51:38;;;;;;;6.40;4.67;;;8.30;58.80;;;;;;5184316;28;20503;-50
2023/03/18 02:54:15;;;;;;;6.97;4.33;;;8.20;58.90;;;;;;5182698;28;20470;-50
2023/03/18 02:56:46;;;;;;;6.97;4.20;;;8.20;59.10;;;;;;5182974;28;20458;-50
2023/03/18 02:59:18;;;;;;;4.90;4.17;;;8.30;58.90;;;;;;5190865;28;20446;-51
2023/03/18 03:01:50;;;;;;;6.60;4.20;;;8.30;58.90;;;;;;5174898;28;20211;-50
2023/03/18 03:04:23;;;;;;;9.47;4.70;;;8.20;59.10;;;;;;5175101;28;20479;-50
2023/03/18 03:06:55;;;;;;;6.70;5.63;;;8.30;58.80;;;;;;5180909;28;20490;-50
2023/03/18 03:09:26;;;;;;;7.60;4.13;;;8.30;58.60;;;;;;5175587;28;20436;-49
2023/03/18 03:11:56;;;;;;;7.50;4.20;;;8.30;59.20;;;;;;5178353;28;20478;-50
2023/03/18 03:14:27;;;;;;;4.27;3.80;;;8.30;58.80;;;;;;5178593;28;20224;-50
2023/03/18 03:16:58;;;;;;;10.50;4.50;;;8.30;58.90;;;;;;5175324;28;20212;-50
2023/03/18 03:19:29;;;;;;;7.20;4.47;;;8.30;58.90;;;;;;5178990;28;20188;-49
2023/03/18 03:22:00;;;;;;;7.87;4.60;;;8.20;58.90;;;;;;5181776;28;20172;-50
2023/03/18 03:24:30;;;;;;;8.80;4.80;;;8.30;58.90;;;;;;5184398;28;20515;-50
2023/03/18 03:27:01;;;;;;;5.50;4.97;;;8.30;59.00;;;;;;5181659;28;20211;-49
2023/03/18 03:29:32;;;;;;;7.77;5.50;;;8.20;59.00;;;;;;5183881;28;20181;-51
2023/03/18 03:32:02;;;;;;;5.87;3.80;;;8.20;59.20;;;;;;5180317;28;20196;-50
2023/03/18 03:34:33;;;;;;;6.27;5.00;;;8.20;59.00;;;;;;5179322;28;20208;-50
2023/03/18 03:37:05;;;;;;;4.30;3.90;;;8.20;59.00;;;;;;5178627;28;20262;-49
2023/03/18 03:39:36;;;;;;;6.53;4.50;;;8.30;59.10;;;;;;5182131;28;20258;-50
2023/03/18 03:42:06;;;;;;;10.20;5.47;;;8.30;59.00;;;;;;5182578;28;20963;-50
2023/03/18 03:44:37;;;;;;;4.97;4.47;;;8.20;59.20;;;;;;5182823;28;20181;-50
2023/03/18 03:47:08;;;;;;;6.87;4.07;;;8.20;59.30;;;;;;5171070;23;20280;-46
2023/03/18 03:49:38;;;;;;;12.00;4.73;;;8.20;59.60;;;;;;5209336;28;20212;-46
2023/03/18 03:52:09;;;;;;;10.30;4.63;;;8.10;59.50;;;;;;5200725;28;20225;-45
2023/03/18 03:54:40;;;;;;;4.83;4.03;;;8.10;59.60;;;;;;5202367;28;20207;-45
2023/03/18 03:57:14;;;;;;;6.30;4.53;;;8.20;59.40;;;;;;5210583;28;20583;-46
2023/03/18 03:59:45;;;;;;;16.50;4.67;;;8.20;59.40;;;;;;5204774;28;20520;-46
2023/03/18 04:02:16;;;;;;;11.60;5.13;;;8.20;59.70;;;;;;5205855;28;20601;-46
2023/03/18 04:04:47;;;;;;;6.60;4.40;;;8.20;59.80;;;;;;5207906;28;20237;-46
2023/03/18 04:07:18;;;;;;;4.70;4.17;;;8.20;59.70;;;;;;5200625;28;20453;-45
2023/03/18 04:09:49;;;;;;;5.37;4.10;;;8.30;59.70;;;;;;5200581;28;20183;-45
2023/03/18 04:12:19;;;;;;;5.80;3.87;;;8.10;59.90;;;;;;5201291;28;20777;-46
2023/03/18 04:14:50;;;;;;;9.07;4.43;;;8.10;60.00;;;;;;5201609;28;20211;-46
2023/03/18 04:17:21;;;;;;;5.97;4.77;;;8.00;60.10;;;;;;5205905;28;20452;-45
2023/03/18 04:19:52;;;;;;;7.73;4.57;;;8.00;60.30;;;;;;5204204;28;20658;-45
2023/03/18 04:22:23;;;;;;;12.97;4.60;;;8.00;60.60;;;;;;5201940;28;20530;-45
2023/03/18 04:24:54;;;;;;;10.60;4.13;;;8.30;60.40;;;;;;5194683;28;20192;-45
2023/03/18 04:27:26;;;;;;;5.53;4.23;;;8.10;60.60;;;;;;5202174;28;20975;-46
2023/03/18 04:29:57;;;;;;;8.40;5.00;;;8.10;60.90;;;;;;5204213;28;20554;-44
2023/03/18 04:32:28;;;;;;;9.63;5.40;;;8.10;60.90;;;;;;5202795;28;20446;-45
2023/03/18 04:35:03;;;;;;;6.83;4.57;;;8.00;61.40;;;;;;5198247;28;20537;-45
2023/03/18 04:37:35;;;;;;;5.43;4.40;;;8.10;61.00;;;;;;5207339;28;20280;-45
2023/03/18 04:40:06;;;;;;;10.13;4.90;;;8.10;61.10;;;;;;5203477;28;20435;-45
2023/03/18 04:42:37;;;;;;;4.50;4.10;;;8.20;61.10;;;;;;5207793;28;20458;-45
2023/03/18 04:45:08;;;;;;;9.17;4.50;;;8.20;60.30;;;;;;5204220;28;20426;-46
2023/03/18 04:47:40;;;;;;;5.73;4.00;;;8.30;61.00;;;;;;5203521;28;20494;-45
2023/03/18 04:50:13;;;;;;;7.80;4.87;;;8.20;60.90;;;;;;5196658;28;20419;-49
2023/03/18 04:52:44;;;;;;;7.23;4.60;;;8.10;61.00;;;;;;5203120;28;20423;-45
2023/03/18 04:55:16;;;;;;;4.43;3.93;;;8.00;61.50;;;;;;5203104;28;20532;-48
2023/03/18 04:57:49;;;;;;;7.77;5.00;;;8.10;61.60;;;;;;5205175;28;20509;-46
2023/03/18 05:00:21;;;;;;;5.40;4.50;;;8.10;61.50;;;;;;5193144;28;20940;-48
2023/03/18 05:02:52;;;;;;;5.80;4.20;;;8.10;61.50;;;;;;5201956;28;20442;-45
2023/03/18 05:05:22;;;;;;;9.53;4.93;;;8.10;61.60;;;;;;5201350;28;20436;-46
2023/03/18 05:07:53;;;;;;;4.60;3.97;;;8.00;61.70;;;;;;5206969;28;20232;-45
2023/03/18 05:10:24;;;;;;;7.17;4.33;;;8.00;62.10;;;;;;5211658;28;20186;-47
2023/03/18 05:12:55;;;;;;;7.80;4.03;;;8.00;62.30;;;;;;5189443;28;20562;-46
2023/03/18 05:15:26;;;;;;;8.90;4.20;;;7.90;62.40;;;;;;5206362;28;21305;-46
2023/03/18 05:17:57;;;;;;;6.23;4.20;;;8.00;63.10;;;;;;5208826;28;20196;-45
2023/03/18 05:20:28;;;;;;;10.80;4.43;;;7.90;63.40;;;;;;5217636;28;20522;-46
2023/03/18 05:22:59;;;;;;;6.83;4.33;;;7.90;63.30;;;;;;5202267;28;20525;-45
2023/03/18 05:25:30;;;;;;;5.53;4.33;;;7.70;63.60;;;;;;5206853;28;20180;-47
2023/03/18 05:28:01;;;;;;;6.83;5.03;;;7.80;64.30;;;;;;5184320;28;20286;-45
2023/03/18 05:30:33;;;;;;;10.80;5.37;;;7.70;65.00;;;;;;5201616;28;20435;-45
2023/03/18 05:33:03;;;;;;;7.77;4.50;;;7.70;65.30;;;;;;5200529;28;20499;-47
2023/03/18 05:35:35;;;;;;;5.90;4.27;;;7.80;65.00;;;;;;5198963;28;20479;-46
2023/03/18 05:38:06;;;;;;;6.63;4.57;;;7.80;65.10;;;;;;5203915;28;20555;-47
2023/03/18 05:40:36;;;;;;;8.70;4.83;;;7.80;65.00;;;;;;5193610;28;20807;-46
2023/03/18 05:43:07;;;;;;;7.07;4.67;;;7.80;65.10;;;;;;5193057;28;20438;-45
2023/03/18 05:45:38;;;;;;;9.23;5.10;;;7.80;65.20;;;;;;5200519;28;20275;-45
2023/03/18 05:48:10;;;;;;;5.20;3.87;;;7.70;65.60;;;;;;5203711;28;20485;-47
2023/03/18 05:50:42;;;;;;;15.83;5.27;;;7.80;65.80;;;;;;5204173;28;20210;-45
2023/03/18 05:53:15;;;;;;;4.93;4.20;;;7.90;65.30;;;;;;5202602;28;20435;-44
2023/03/18 05:55:45;;;;;;;7.20;4.73;;;8.00;64.90;;;;;;5208243;28;20496;-44
2023/03/18 05:58:17;;;;;;;9.57;4.80;;;8.10;64.50;;;;;;5205308;28;20489;-45
2023/03/18 06:00:49;;;;;;;8.80;5.30;;;8.10;65.40;;;;;;5199301;28;20226;-46
2023/03/18 06:03:20;;;;;;;4.73;4.10;;;8.10;65.10;;;;;;5202326;28;20511;-46
2023/03/18 06:05:51;;;;;;;14.77;5.13;;;8.20;64.90;;;;;;5203977;28;20471;-47
2023/03/18 06:08:22;;;;;;;5.07;4.20;;;8.10;65.00;;;;;;5196387;28;20214;-47
2023/03/18 06:10:53;;;;;;;11.87;5.00;;;8.40;64.30;;;;;;5206006;28;20442;-45
2023/03/18 06:13:24;;;;;;;7.90;4.43;;;8.50;63.70;;;;;;5198132;28;20211;-46
2023/03/18 06:15:57;;;;;;;8.93;4.47;;;8.50;63.70;;;;;;5206912;28;20485;-45
2023/03/18 06:18:27;;;;;;;5.87;4.77;;;8.40;63.20;;;;;;5203890;28;20200;-46
2023/03/18 06:20:58;;;;;;;8.50;4.50;;;8.40;64.10;;;;;;5209287;28;20488;-45
2023/03/18 06:23:29;;;;;;;5.17;4.50;;;8.30;64.00;;;;;;5210463;28;20198;-45
2023/03/18 06:26:00;;;;;;;9.43;4.90;;;8.50;63.40;;;;;;5198197;28;20172;-46
2023/03/18 06:28:31;;;;;;;6.57;4.10;;;8.50;62.90;;;;;;5206287;28;20203;-46
2023/03/18 06:31:02;;;;;;;10.90;5.93;;;8.60;62.70;;;;;;5208038;28;20941;-45
2023/03/18 06:33:34;;;;;;;7.47;4.63;;;8.60;62.80;;;;;;5201307;28;20184;-45
2023/03/18 06:36:05;;;;;;;9.13;5.07;;;8.70;62.50;;;;;;5201997;28;20466;-47
2023/03/18 06:38:36;;;;;;;6.67;3.80;;;8.60;62.60;;;;;;5201588;28;20450;-46
2023/03/18 06:41:07;;;;;;;5.90;4.40;;;8.60;62.90;;;;;;5199477;28;20453;-46
2023/03/18 06:43:38;;;;;;;7.40;5.60;;;8.70;62.30;;;;;;5205604;28;20434;-46
2023/03/18 06:46:09;;;;;;;15.30;6.87;;;8.80;62.40;;;;;;5206363;28;20220;-45
2023/03/18 06:48:40;;;;;;;6.80;5.20;;;8.90;62.10;;;;;;5197426;28;20262;-47
2023/03/18 06:51:11;;;;;;;8.73;4.43;;;8.90;62.00;;;;;;5204170;28;20642;-46
2023/03/18 06:53:42;;;;;;;16.40;5.93;;;9.00;62.00;;;;;;5205852;28;20475;-45
2023/03/18 06:56:15;;;;;;;11.37;5.60;;;9.00;61.60;;;;;;5204021;28;20195;-46
2023/03/18 06:58:48;;;;;;;11.97;5.90;;;9.10;61.40;;;;;;5210972;28;20975;-46
2023/03/18 07:01:19;;;;;;;10.83;5.87;;;9.10;61.20;;;;;;5207294;28;20423;-45
2023/03/18 07:03:50;;;;;;;9.17;5.10;;;9.20;61.10;;;;;;5213455;28;20452;-46
2023/03/18 07:06:21;;;;;;;16.50;6.97;;;9.40;60.90;;;;;;5196188;28;20437;-45
2023/03/18 07:08:53;;;;;;;10.73;7.33;;;9.90;60.20;;;;;;5208494;28;20230;-46
2023/03/18 07:11:24;;;;;;;15.57;8.50;;;10.60;57.10;;;;;;5210216;28;20430;-46
2023/03/18 07:13:55;;;;;;;17.30;7.07;;;11.20;55.20;;;;;;5208694;28;20439;-47
2023/03/18 07:16:26;;;;;;;12.27;5.73;;;11.50;53.60;;;;;;5209459;28;20189;-47
2023/03/18 07:18:59;;;;;;;9.97;6.13;;;11.70;52.60;;;;;;5202291;28;20477;-46
2023/03/18 07:21:30;;;;;;;11.00;6.50;;;11.90;52.20;;;;;;5211318;28;20441;-45
2023/03/18 07:24:02;;;;;;;8.70;5.47;;;12.10;51.40;;;;;;5215299;28;20994;-46
2023/03/18 07:26:33;;;;;;;12.77;6.30;;;12.60;50.60;;;;;;5212666;28;20555;-45
2023/03/18 07:29:05;;;;;;;9.23;6.10;;;13.00;50.00;;;;;;5202388;28;20899;-47
2023/03/18 07:31:35;;;;;;;10.40;5.57;;;13.80;48.40;;;;;;5205931;28;20193;-47
2023/03/18 07:34:08;;;;;;;16.00;5.43;;;14.70;46.40;;;;;;5211643;28;20434;-46
2023/03/18 07:36:38;;;;;;;10.60;6.70;;;15.30;44.10;;;;;;5213807;28;20190;-46
2023/03/18 07:39:10;;;;;;;9.87;6.80;;;14.70;44.20;;;;;;5208378;28;20914;-48
2023/03/18 07:41:40;;;;;;;13.83;7.57;;;14.20;45.30;;;;;;5206818;28;20628;-46
2023/03/18 07:44:11;;;;;;;19.10;11.37;;;14.40;46.10;;;;;;5208672;28;20983;-48
2023/03/18 07:46:43;;;;;;;9.47;7.00;;;15.10;44.70;;;;;;5211539;28;20188;-46
2023/03/18 07:49:14;;;;;;;13.33;9.33;;;16.00;42.70;;;;;;5212935;28;20185;-46
2023/03/18 07:51:45;;;;;;;6.97;6.30;;;16.80;41.80;;;;;;5213885;28;20430;-46
2023/03/18 07:54:16;;;;;;;12.40;8.10;;;17.50;40.10;;;;;;5185983;28;20212;-47
2023/03/18 07:56:47;;;;;;;12.70;7.70;;;18.20;39.50;;;;;;5204240;28;20203;-47
2023/03/18 07:59:18;;;;;;;6.73;5.80;;;18.90;38.30;;;;;;5204620;28;20512;-46
2023/03/18 08:01:49;;;;;;;9.57;5.67;;;19.50;37.00;;;;;;5203842;28;20230;-49
2023/03/18 08:04:19;;;;;;;12.80;6.30;;;19.60;36.40;;;;;;5208194;28;20188;-47
2023/03/18 08:06:50;;;;;;;14.13;7.00;;;19.40;37.00;;;;;;5201663;28;20200;-47
2023/03/18 08:09:21;;;;;;;8.43;4.90;;;19.30;37.20;;;;;;5204246;28;20183;-47
2023/03/18 08:11:52;;;;;;;6.97;5.30;;;19.10;37.50;;;;;;5201595;28;20179;-47
2023/03/18 08:14:26;;;;;;;10.63;5.87;;;18.70;38.20;;;;;;5206111;28;20199;-48
2023/03/18 08:16:57;;;;;;;9.57;5.70;;;17.90;38.20;;;;;;5205385;28;20214;-49
2023/03/18 08:19:28;;;;;;;6.47;5.23;;;17.30;39.50;;;;;;5205679;28;20422;-46
2023/03/18 08:21:59;;;;;;;6.83;4.97;;;17.00;40.50;;;;;;5207197;28;21034;-47
2023/03/18 08:24:30;;;;;;;8.97;5.90;;;16.50;40.80;;;;;;5204441;28;20838;-46
2023/03/18 08:27:01;;;;;;;5.00;4.60;;;16.20;41.70;;;;;;5206724;28;20904;-50
2023/03/18 08:29:32;;;;;;;10.20;5.23;;;16.00;42.40;;;;;;5204460;28;20183;-47
2023/03/18 08:32:03;;;;;;;6.77;4.33;;;15.90;42.70;;;;;;5204817;28;20513;-47
2023/03/18 08:34:34;;;;;;;6.13;4.73;;;16.00;43.80;;;;;;5202618;28;21810;-47
2023/03/18 08:37:07;;;;;;;6.30;5.03;;;16.30;42.70;;;;;;5206022;28;20196;-47
2023/03/18 08:39:38;;;;;;;10.53;5.17;;;16.30;42.50;;;;;;5203321;28;20422;-47
2023/03/18 08:42:10;;;;;;;8.23;4.57;;;15.90;42.80;;;;;;5202489;28;20465;-47
2023/03/18 08:44:42;;;;;;;7.50;4.93;;;15.70;43.50;;;;;;5189084;28;20418;-47
2023/03/18 08:47:13;;;;;;;8.63;5.03;;;15.60;44.10;;;;;;5199726;28;20466;-49
2023/03/18 08:49:44;;;;;;;4.00;3.43;;;15.50;44.30;;;;;;5205313;28;20960;-47
2023/03/18 08:52:15;;;;;;;9.47;4.47;;;15.50;44.70;;;;;;5202941;28;20770;-48
2023/03/18 08:54:46;;;;;;;8.33;4.73;;;15.50;44.50;;;;;;5203610;28;20816;-49
2023/03/18 08:57:17;;;;;;;6.07;5.47;;;15.50;44.50;;;;;;5204194;28;20451;-49
2023/03/18 08:59:48;;;;;;;5.80;5.20;;;15.80;44.50;;;;;;5201256;28;20434;-49
2023/03/18 09:02:19;;;;;;;10.27;8.77;;;15.90;44.60;;;;;;5203366;28;20191;-49
2023/03/18 09:04:50;;;;;;;13.37;9.17;;;16.00;43.80;;;;;;5201865;28;20946;-49
2023/03/18 09:07:21;;;;;;;16.57;10.57;;;15.80;44.30;;;;;;5204380;28;20199;-49
2023/03/18 09:09:52;;;;;;;16.20;6.87;;;15.60;44.60;;;;;;5201984;28;20465;-46
2023/03/18 09:12:23;;;;;;;5.40;4.70;;;15.50;45.50;;;;;;5201410;28;20672;-47
2023/03/18 09:14:54;;;;;;;8.30;5.20;;;15.60;45.80;;;;;;5203142;28;20497;-50
2023/03/18 09:17:25;;;;;;;9.10;5.47;;;15.90;45.30;;;;;;5192314;28;20203;-48
2023/03/18 09:19:56;;;;;;;11.17;6.47;;;16.10;44.80;;;;;;5196329;28;20431;-47
2023/03/18 09:22:26;;;;;;;13.87;6.60;;;16.10;44.40;;;;;;5203512;28;20179;-48
2023/03/18 09:24:57;;;;;;;19.93;6.30;;;15.90;44.50;;;;;;5199592;28;20188;-47
2023/03/18 09:27:28;;;;;;;18.40;9.60;;;15.50;45.30;;;;;;5197065;28;20215;-46
2023/03/18 09:29:59;;;;;;;18.20;10.23;;;15.30;46.00;;;;;;5196663;28;21425;-47
2023/03/18 09:32:30;;;;;;;19.10;10.30;;;15.20;46.50;;;;;;5196398;28;20214;-50
2023/03/18 09:35:00;;;;;;;8.20;6.10;;;15.20;46.80;;;;;;5191722;28;20222;-49
2023/03/18 09:37:31;;;;;;;7.90;6.20;;;15.20;46.70;;;;;;5197464;28;20265;-47
2023/03/18 09:40:06;;;;;;;12.17;8.50;;;15.10;47.60;;;;;;5199134;28;20176;-50
2023/03/18 09:43:27;;;;;;;8.00;6.03;;;15.10;47.10;;;;;;5209536;28;20954;-48
2023/03/18 09:46:18;;;;;;;10.23;5.73;;;15.00;47.70;;;;;;5154659;28;20432;-49
2023/03/18 09:48:59;;;;;;;10.13;7.20;;;15.10;47.90;;;;;;5195631;28;20469;-49
2023/03/18 09:51:45;;;;;;;9.23;6.50;;;15.30;47.60;;;;;;5194135;28;20456;-49
2023/03/18 09:54:28;;;;;;;8.50;5.30;;;15.40;47.60;;;;;;5193269;28;20438;-48
2023/03/18 09:56:59;;;;;;;16.50;7.90;;;15.40;47.70;;;;;;5197687;28;20457;-49
2023/03/18 09:59:40;;;;;;;9.23;6.23;;;15.50;47.80;;;;;;5194449;28;20520;-50
2023/03/18 10:02:44;;;;;;;10.40;6.03;;;15.50;48.60;;;;;;5193444;28;20438;-49
2023/03/18 10:05:51;;;;;;;7.93;5.37;;;15.80;47.20;;;;;;5187874;28;20517;-49
2023/03/18 10:09:07;;;;;;;8.00;6.07;;;15.90;47.60;;;;;;5178603;28;20486;-48
2023/03/18 10:11:42;;;;;;;5.23;4.70;;;15.90;47.30;;;;;;5193467;28;20450;-50
2023/03/18 10:14:26;;;;;;;8.00;5.07;;;16.00;47.60;;;;;;5190708;28;20783;-48
2023/03/18 10:17:05;;;;;;;7.90;5.90;;;16.10;47.80;;;;;;5189093;28;20825;-49
2023/03/18 10:19:38;;;;;;;8.90;6.20;;;16.20;47.50;;;;;;5192966;28;20462;-49
2023/03/18 10:22:09;;;;;;;9.47;5.50;;;16.40;47.40;;;;;;5194341;28;20526;-49
2023/03/18 10:25:12;;;;;;;7.13;4.93;;;16.50;47.50;;;;;;5199029;28;20525;-49
2023/03/18 10:28:02;;;;;;;18.63;6.50;;;16.80;47.40;;;;;;5188701;28;20469;-50
2023/03/18 10:30:57;;;;;;;13.80;5.80;;;17.10;46.30;;;;;;5192871;28;20445;-49
2023/03/18 10:33:56;;;;;;;10.43;5.90;;;16.90;46.00;;;;;;5196500;28;20435;-48
2023/03/18 10:36:33;;;;;;;12.43;5.63;;;16.70;46.60;;;;;;5196029;28;20486;-49
2023/03/18 10:39:12;;;;;;;4.93;4.47;;;16.60;47.00;;;;;;5197743;28;20443;-48
2023/03/18 10:41:48;;;;;;;6.27;4.87;;;16.70;47.40;;;;;;5195385;28;20429;-48
2023/03/18 10:44:27;;;;;;;5.20;4.47;;;16.80;47.60;;;;;;5196896;28;20530;-49
2023/03/18 10:47:22;;;;;;;9.07;4.60;;;16.90;47.30;;;;;;5190375;28;20822;-48
2023/03/18 10:50:04;;;;;;;6.27;4.47;;;16.70;47.50;;;;;;5196579;28;20846;-49
2023/03/18 10:52:57;;;;;;;5.50;3.97;;;16.80;47.90;;;;;;5195618;28;21062;-49
2023/03/18 10:55:34;;;;;;;10.50;5.53;;;17.00;48.20;;;;;;5186987;28;21032;-48
2023/03/18 10:58:23;;;;;;;8.40;5.40;;;17.20;48.40;;;;;;5190517;28;20468;-50
2023/03/18 11:00:54;;;;;;;13.53;6.70;;;17.30;48.10;;;;;;5190728;28;20438;-50
2023/03/18 11:03:40;;;;;;;6.53;4.40;;;17.40;48.20;;;;;;5193331;28;20434;-48
2023/03/18 11:06:17;;;;;;;9.63;6.07;;;17.50;48.00;;;;;;5190338;28;20438;-48
2023/03/18 11:08:48;;;;;;;7.70;4.70;;;17.40;48.20;;;;;;5215282;28;20554;-50
2023/03/18 11:11:31;;;;;;;4.93;3.87;;;17.40;48.50;;;;;;5196382;28;20525;-50
2023/03/18 11:14:04;;;;;;;9.03;4.97;;;17.50;48.50;;;;;;5196475;28;20195;-47
2023/03/18 11:16:45;;;;;;;6.07;4.63;;;17.60;48.20;;;;;;5168644;28;21748;-48
2023/03/18 11:19:28;;;;;;;7.10;4.17;;;17.70;48.50;;;;;;5195974;28;20820;-50
2023/03/18 11:22:16;;;;;;;5.60;4.60;;;17.80;48.60;;;;;;5194029;28;20444;-50
2023/03/18 11:25:21;;;;;;;10.13;5.20;;;18.00;47.80;;;;;;5197199;28;20427;-50
2023/03/18 11:28:03;;;;;;;7.00;4.10;;;17.80;48.60;;;;;;5195467;28;20534;-50
2023/03/18 11:30:45;;;;;;;4.43;4.00;;;18.00;48.20;;;;;;5194967;28;20466;-49
2023/03/18 11:33:16;;;;;;;9.57;4.40;;;18.20;48.10;;;;;;5200975;28;20442;-50
2023/03/18 11:35:58;;;;;;;8.33;5.53;;;18.40;47.90;;;;;;5191078;28;20462;-48
2023/03/18 11:38:32;;;;;;;8.97;6.50;;;18.70;47.50;;;;;;5196517;28;20461;-50
2023/03/18 11:41:17;;;;;;;4.60;4.13;;;18.70;47.10;;;;;;5197186;28;20485;-48
2023/03/18 11:44:15;;;;;;;7.50;4.53;;;18.50;47.60;;;;;;5191132;28;20641;-48
2023/03/18 11:46:59;;;;;;;7.10;4.57;;;18.60;47.70;;;;;;5192170;28;20588;-48
2023/03/18 11:49:30;;;;;;;4.20;3.67;;;18.40;48.00;;;;;;5199119;28;21065;-50
2023/03/18 11:52:34;;;;;;;8.90;4.33;;;18.40;48.40;;;;;;5194559;28;20768;-50
2023/03/18 11:55:42;;;;;;;6.57;4.47;;;18.30;48.60;;;;;;5192095;28;20538;-49
2023/03/18 11:58:22;;;;;;;7.03;4.37;;;18.30;48.90;;;;;;5166743;28;20458;-48
2023/03/18 12:01:16;;;;;;;5.30;4.77;;;18.30;49.40;;;;;;5194215;28;20969;-49
2023/03/18 12:04:08;;;;;;;9.87;4.63;;;18.30;50.00;;;;;;5192325;28;20447;-47
2023/03/18 12:07:02;;;;;;;5.37;4.57;;;18.50;49.70;;;;;;5200269;28;20549;-50
2023/03/18 12:09:43;;;;;;;7.50;4.57;;;18.50;50.10;;;;;;5195304;28;20527;-48
2023/03/18 12:12:30;;;;;;;7.57;6.00;;;18.30;49.80;;;;;;5198957;28;20473;-47
2023/03/18 12:15:24;;;;;;;9.23;4.17;;;18.20;50.10;;;;;;5197870;28;20458;-51
2023/03/18 12:18:26;;;;;;;4.80;4.30;;;18.20;50.40;;;;;;5198350;28;20446;-47
2023/03/18 12:21:15;;;;;;;6.77;4.20;;;17.90;51.00;;;;;;5187258;28;20445;-47
2023/03/18 12:23:54;;;;;;;5.90;5.30;;;17.90;51.50;;;;;;5198317;28;20699;-48
2023/03/18 12:26:54;;;;;;;5.00;4.17;;;18.10;51.40;;;;;;5197106;28;20449;-49
2023/03/18 12:29:52;;;;;;;4.97;3.93;;;18.30;51.60;;;;;;5194706;28;20443;-48
2023/03/18 12:32:40;;;;;;;5.50;3.63;;;18.00;52.30;;;;;;5198588;28;20926;-49
2023/03/18 12:35:43;;;;;;;7.80;3.80;;;18.00;52.80;;;;;;5197035;28;20470;-50
2023/03/18 12:38:48;;;;;;;5.30;3.57;;;18.10;52.90;;;;;;5194416;28;20537;-49
2023/03/18 12:41:34;;;;;;;6.23;4.00;;;18.30;52.90;;;;;;5196247;28;20434;-51
2023/03/18 12:44:17;;;;;;;12.60;4.23;;;18.40;52.90;;;;;;5200308;28;20468;-50
2023/03/18 12:46:53;;;;;;;4.27;3.00;;;18.50;53.20;;;;;;5198738;28;20542;-48
2023/03/18 12:49:28;;;;;;;13.23;4.00;;;18.50;53.40;;;;;;5199401;28;20864;-49
2023/03/18 12:52:14;;;;;;;11.37;5.63;;;18.50;53.50;;;;;;5199459;28;20454;-49
2023/03/18 12:55:01;;;;;;;7.10;3.93;;;18.60;53.20;;;;;;5197082;28;20909;-48
2023/03/18 12:57:47;;;;;;;7.90;4.90;;;18.70;53.40;;;;;;5202235;28;20942;-49
2023/03/18 13:00:30;;;;;;;8.20;4.00;;;18.80;53.10;;;;;;5199696;28;20437;-48
2023/03/18 13:03:10;;;;;;;5.87;4.07;;;18.90;53.00;;;;;;5196408;28;20453;-49
2023/03/18 13:06:16;;;;;;;9.53;3.73;;;18.90;52.70;;;;;;5194569;28;20443;-50
2023/03/18 13:08:56;;;;;;;8.77;4.10;;;19.00;53.00;;;;;;5198818;28;20551;-48
2023/03/18 13:11:41;;;;;;;6.17;5.10;;;19.00;53.00;;;;;;5195432;28;20638;-52
2023/03/18 13:14:32;;;;;;;7.73;4.93;;;19.30;52.90;;;;;;5193860;28;20481;-51
2023/03/18 13:17:05;;;;;;;8.33;6.30;;;19.30;53.10;;;;;;5196916;28;20450;-49
2023/03/18 13:19:37;;;;;;;11.50;4.60;;;19.40;53.10;;;;;;5195143;28;20438;-47
2023/03/18 13:22:17;;;;;;;5.63;4.30;;;19.50;53.20;;;;;;5200451;28;20474;-49
2023/03/18 13:25:16;;;;;;;6.33;4.30;;;19.40;52.90;;;;;;5197407;28;20799;-51
2023/03/18 13:27:59;;;;;;;7.60;4.43;;;19.30;52.90;;;;;;5200034;28;20439;-48
2023/03/18 13:30:44;;;;;;;14.20;6.13;;;19.20;53.10;;;;;;5201013;28;20430;-50
2023/03/18 13:33:35;;;;;;;11.67;5.60;;;19.10;53.70;;;;;;5198658;28;20985;-48
2023/03/18 13:36:32;;;;;;;6.17;3.17;;;18.90;54.20;;;;;;5197031;28;20465;-50